createdAt,value
2019-05-22T00:01:16.788Z,30.60
2019-05-22T00:04:04.828Z,31.70
2019-05-22T00:06:39.184Z,34.20
2019-05-22T00:09:19.474Z,35.00
2019-05-22T00:11:52.410Z,33.80
2019-05-22T00:14:24.459Z,34.90
2019-05-22T00:16:56.544Z,35.60
2019-05-22T00:19:26.902Z,37.30
2019-05-22T00:22:08.038Z,36.90
2019-05-22T00:24:41.780Z,37.10
2019-05-22T00:27:14.638Z,37.20
2019-05-22T00:29:47.015Z,37.70
2019-05-22T00:32:17.925Z,36.80
2019-05-22T00:34:48.540Z,36.70
2019-05-22T00:37:20.701Z,36.70
2019-05-22T00:39:52.739Z,36.80
2019-05-22T00:42:24.822Z,37.20
2019-05-22T00:44:56.000Z,35.60
2019-05-22T00:47:28.615Z,35.90
2019-05-22T00:50:03.713Z,34.00
2019-05-22T00:53:09.902Z,33.30
2019-05-22T00:55:48.486Z,33.80
2019-05-22T00:58:27.704Z,34.50
2019-05-22T01:01:01.800Z,35.10
2019-05-22T01:03:36.021Z,34.00
2019-05-22T01:06:08.754Z,35.50
2019-05-22T01:08:42.363Z,34.80
2019-05-22T01:11:15.006Z,36.50
2019-05-22T01:13:46.727Z,37.50
2019-05-22T01:16:17.484Z,37.40
2019-05-22T01:18:49.951Z,37.30
2019-05-22T01:21:24.402Z,37.50
2019-05-22T01:23:59.929Z,37.60
2019-05-22T01:26:32.371Z,37.20
2019-05-22T01:29:04.385Z,34.20
2019-05-22T01:31:41.154Z,32.50
2019-05-22T01:34:13.473Z,31.00
2019-05-22T01:36:50.720Z,32.10
2019-05-22T01:39:45.361Z,33.00
2019-05-22T01:42:25.922Z,33.60
2019-05-22T01:45:05.817Z,34.40
2019-05-22T01:48:00.059Z,34.10
2019-05-22T01:50:51.498Z,34.00
2019-05-22T01:53:23.998Z,36.00
2019-05-22T01:55:59.163Z,33.50
2019-05-22T01:58:31.534Z,35.50
2019-05-22T02:01:06.888Z,34.80
2019-05-22T02:03:38.977Z,32.60
2019-05-22T02:06:10.047Z,31.70
2019-05-22T02:08:45.366Z,32.00
2019-05-22T02:11:18.140Z,34.20
2019-05-22T02:13:54.070Z,30.80
2019-05-22T02:16:24.800Z,30.40
2019-05-22T02:18:56.476Z,33.20
2019-05-22T02:21:27.031Z,33.70
2019-05-22T02:23:58.109Z,32.80
2019-05-22T02:26:28.460Z,29.40
2019-05-22T02:29:00.445Z,30.00
2019-05-22T02:31:32.762Z,29.50
2019-05-22T02:34:08.272Z,31.60
2019-05-22T02:36:40.609Z,30.10
2019-05-22T02:39:21.149Z,30.80
2019-05-22T02:41:56.773Z,32.20
2019-05-22T02:44:29.698Z,32.20
2019-05-22T02:47:16.579Z,32.10
2019-05-22T02:49:33.799Z,34.30
2019-05-22T02:52:05.919Z,32.10
2019-05-22T02:54:36.746Z,34.60
2019-05-22T02:57:09.702Z,35.10
2019-05-22T02:59:42.433Z,35.30
2019-05-22T03:02:16.414Z,33.90
2019-05-22T03:04:58.990Z,36.60
2019-05-22T03:07:31.673Z,37.80
2019-05-22T03:10:03.648Z,38.90
2019-05-22T03:12:38.495Z,39.30
2019-05-22T03:15:12.921Z,40.00
2019-05-22T03:17:47.318Z,40.20
2019-05-22T03:20:21.371Z,39.70
2019-05-22T03:23:39.356Z,39.70
2019-05-22T03:26:11.115Z,39.30
2019-05-22T03:28:43.068Z,40.00
2019-05-22T03:31:15.426Z,40.00
2019-05-22T03:33:47.287Z,40.30
2019-05-22T03:36:21.263Z,40.30
2019-05-22T03:38:53.403Z,40.10
2019-05-22T03:41:24.240Z,40.80
2019-05-22T03:43:56.287Z,40.80
2019-05-22T03:46:38.130Z,40.70
2019-05-22T03:49:28.370Z,40.90
2019-05-22T03:51:44.526Z,41.90
2019-05-22T03:54:16.272Z,42.00
2019-05-22T03:56:48.045Z,41.90
2019-05-22T03:59:18.137Z,42.00
2019-05-22T04:01:49.042Z,42.20
2019-05-22T04:04:40.993Z,42.40
2019-05-22T04:07:19.086Z,42.30
2019-05-22T04:09:52.577Z,42.60
2019-05-22T04:12:24.297Z,42.50
2019-05-22T04:14:54.815Z,42.10
2019-05-22T04:17:26.640Z,42.00
2019-05-22T04:19:57.019Z,40.80
2019-05-22T04:22:27.591Z,40.70
2019-05-22T04:24:58.579Z,39.70
2019-05-22T04:27:29.840Z,40.10
2019-05-22T04:30:00.768Z,40.60
2019-05-22T04:32:35.070Z,40.10
2019-05-22T04:35:08.685Z,41.20
2019-05-22T04:37:39.745Z,42.00
2019-05-22T04:40:49.016Z,40.50
2019-05-22T04:43:21.293Z,38.40
2019-05-22T04:45:53.676Z,37.70
2019-05-22T04:48:25.176Z,37.20
2019-05-22T04:50:56.301Z,38.20
2019-05-22T04:53:27.334Z,37.80
2019-05-22T04:55:57.526Z,38.50
2019-05-22T04:58:31.320Z,39.10
2019-05-22T05:01:02.231Z,37.70
2019-05-22T05:03:32.862Z,39.00
2019-05-22T05:06:07.019Z,36.90
2019-05-22T05:08:38.663Z,35.40
2019-05-22T05:11:09.719Z,36.60
2019-05-22T05:13:40.397Z,32.00
2019-05-22T05:16:10.575Z,29.80
2019-05-22T05:18:40.967Z,32.00
2019-05-22T05:21:11.329Z,30.40
2019-05-22T05:23:41.508Z,35.60
2019-05-22T05:26:11.628Z,30.70
2019-05-22T05:28:42.458Z,35.30
2019-05-22T05:31:13.571Z,35.50
2019-05-22T05:34:08.712Z,36.90
2019-05-22T05:36:39.958Z,30.70
2019-05-22T05:39:32.581Z,30.50
2019-05-22T05:42:03.084Z,29.90
2019-05-22T05:44:33.891Z,32.00
2019-05-22T05:47:06.844Z,28.90
2019-05-22T05:49:37.736Z,29.40
2019-05-22T05:52:09.960Z,30.20
2019-05-22T05:54:41.879Z,29.10
2019-05-22T05:57:49.546Z,26.90
2019-05-22T06:00:22.902Z,25.50
2019-05-22T06:02:56.930Z,23.30
2019-05-22T06:05:29.408Z,21.00
2019-05-22T06:07:59.509Z,21.90
2019-05-22T06:11:40.248Z,19.90
2019-05-22T06:14:12.977Z,16.50
2019-05-22T06:17:31.433Z,21.30
2019-05-22T06:20:05.863Z,15.70
2019-05-22T06:22:38.528Z,13.30
2019-05-22T06:25:11.086Z,17.30
2019-05-22T06:27:53.378Z,13.40
2019-05-22T06:30:42.398Z,16.70
2019-05-22T06:33:38.752Z,14.30
2019-05-22T06:36:14.457Z,18.50
2019-05-22T06:38:54.355Z,17.40
2019-05-22T06:41:28.811Z,18.00
2019-05-22T06:44:26.786Z,17.90
2019-05-22T06:46:56.999Z,15.80
2019-05-22T06:49:40.201Z,12.70
2019-05-22T06:52:11.158Z,14.90
2019-05-22T06:54:42.399Z,9.80
2019-05-22T06:57:18.316Z,5.00
2019-05-22T07:00:10.729Z,2.30
2019-05-22T07:02:23.611Z,2.80
2019-05-22T07:04:55.843Z,7.10
2019-05-22T07:07:27.738Z,1.00
2019-05-22T07:09:59.318Z,1.00
2019-05-22T07:12:32.548Z,1.00
2019-05-22T07:15:23.336Z,1.00
2019-05-22T07:17:55.770Z,1.00
2019-05-22T07:20:28.514Z,1.00
2019-05-22T07:23:00.416Z,1.00
2019-05-22T07:25:32.973Z,1.00
2019-05-22T07:28:04.519Z,1.00
2019-05-22T07:30:36.301Z,1.00
2019-05-22T07:33:07.443Z,1.00
2019-05-22T07:35:56.322Z,1.00
2019-05-22T07:38:10.011Z,1.00
2019-05-22T07:40:40.656Z,1.00
2019-05-22T07:43:11.269Z,1.00
2019-05-22T07:45:42.521Z,1.00
2019-05-22T07:48:13.902Z,1.00
2019-05-22T07:50:49.493Z,1.00
2019-05-22T07:53:20.476Z,1.00
2019-05-22T07:55:52.412Z,1.00
2019-05-22T07:58:25.642Z,1.00
2019-05-22T08:01:00.633Z,1.00
2019-05-22T08:03:32.531Z,1.00
2019-05-22T08:06:04.959Z,1.00
2019-05-22T08:08:37.004Z,1.00
2019-05-22T08:11:07.508Z,1.00
2019-05-22T08:13:38.613Z,1.00
2019-05-22T08:16:09.745Z,1.00
2019-05-22T08:18:40.629Z,1.00
2019-05-22T08:21:11.679Z,1.00
2019-05-22T08:23:42.124Z,1.00
2019-05-22T08:26:14.978Z,1.00
2019-05-22T08:28:45.741Z,1.00
2019-05-22T08:31:17.194Z,1.00
2019-05-22T08:33:48.011Z,1.00
2019-05-22T08:36:18.157Z,1.00
2019-05-22T08:38:48.759Z,1.00
2019-05-22T08:41:24.577Z,1.00
2019-05-22T08:44:14.301Z,1.00
2019-05-22T08:46:27.755Z,1.00
2019-05-22T08:49:01.010Z,1.00
2019-05-22T08:51:34.338Z,1.00
2019-05-22T08:54:06.625Z,1.00
2019-05-22T08:56:47.469Z,1.00
2019-05-22T08:59:19.944Z,1.00
2019-05-22T09:01:49.799Z,1.00
2019-05-22T09:04:20.378Z,1.00
2019-05-22T09:06:50.465Z,1.00
2019-05-22T09:09:20.675Z,1.00
2019-05-22T09:11:50.848Z,1.00
2019-05-22T09:14:21.546Z,1.00
2019-05-22T09:16:52.136Z,1.00
2019-05-22T09:19:22.653Z,1.00
2019-05-22T09:21:53.710Z,1.00
2019-05-22T09:24:26.735Z,1.00
2019-05-22T09:26:57.562Z,1.00
2019-05-22T09:29:28.297Z,1.00
2019-05-22T09:31:58.684Z,1.00
2019-05-22T09:34:29.189Z,1.00
2019-05-22T09:36:59.580Z,1.00
2019-05-22T09:39:29.851Z,1.00
2019-05-22T09:42:00.281Z,1.00
2019-05-22T09:44:31.485Z,1.00
2019-05-22T09:47:01.709Z,1.00
2019-05-22T09:49:32.852Z,1.00
2019-05-22T09:52:04.692Z,1.00
2019-05-22T09:54:34.917Z,1.00
2019-05-22T09:57:07.580Z,1.00
2019-05-22T09:59:38.039Z,1.00
2019-05-22T10:02:09.010Z,1.00
2019-05-22T10:04:39.783Z,1.00
2019-05-22T10:07:09.951Z,1.00
2019-05-22T10:09:40.267Z,1.00
2019-05-22T10:12:11.669Z,1.00
2019-05-22T10:14:42.521Z,1.00
2019-05-22T10:17:15.270Z,1.00
2019-05-22T10:19:45.996Z,1.00
2019-05-22T10:22:17.503Z,1.00
2019-05-22T10:24:50.299Z,1.00
2019-05-22T10:27:20.075Z,1.00
2019-05-22T10:29:52.740Z,1.00
2019-05-22T10:32:23.326Z,1.00
2019-05-22T10:34:57.476Z,1.00
2019-05-22T10:37:26.483Z,1.00
2019-05-22T10:39:57.680Z,1.00
2019-05-22T10:42:28.471Z,1.00
2019-05-22T10:44:58.853Z,1.00
2019-05-22T10:47:29.280Z,1.00
2019-05-22T10:49:59.533Z,1.00
2019-05-22T10:52:30.299Z,1.00
2019-05-22T10:55:00.629Z,1.00
2019-05-22T10:57:31.371Z,1.00
2019-05-22T11:00:03.102Z,1.00
2019-05-22T11:02:35.043Z,1.00
2019-05-22T11:05:06.253Z,1.00
2019-05-22T11:07:37.113Z,1.00
2019-05-22T11:10:08.454Z,1.00
2019-05-22T11:12:39.776Z,1.00
2019-05-22T11:15:11.150Z,1.00
2019-05-22T11:17:41.911Z,1.00
2019-05-22T11:20:14.362Z,1.00
2019-05-22T11:22:44.863Z,1.00
2019-05-22T11:25:16.041Z,1.00
2019-05-22T11:27:46.589Z,1.00
2019-05-22T11:30:17.938Z,1.00
2019-05-22T11:32:48.817Z,1.00
2019-05-22T11:35:20.969Z,1.00
2019-05-22T11:37:51.252Z,1.00
2019-05-22T11:40:23.701Z,1.00
2019-05-22T11:42:55.015Z,1.00
2019-05-22T11:45:25.404Z,1.00
2019-05-22T11:47:56.535Z,1.00
2019-05-22T11:50:28.100Z,1.00
2019-05-22T11:52:58.584Z,1.00
2019-05-22T11:55:43.683Z,1.00
2019-05-22T11:58:01.947Z,1.00
2019-05-22T12:00:31.983Z,1.00
2019-05-22T12:03:03.081Z,1.00
2019-05-22T12:05:34.131Z,1.00
2019-05-22T12:08:05.623Z,1.00
2019-05-22T12:10:38.279Z,1.00
2019-05-22T12:13:09.771Z,1.00
2019-05-22T12:15:40.630Z,1.00
2019-05-22T12:18:12.309Z,1.00
2019-05-22T12:20:42.914Z,1.00
2019-05-22T12:23:13.772Z,1.00
2019-05-22T12:25:44.606Z,1.00
2019-05-22T12:28:15.169Z,1.00
2019-05-22T12:30:46.952Z,1.00
2019-05-22T12:33:18.567Z,1.00
2019-05-22T12:35:50.861Z,1.00
2019-05-22T12:38:26.203Z,1.00
2019-05-22T12:40:55.867Z,1.00
2019-05-22T12:43:29.951Z,1.00
2019-05-22T12:46:00.962Z,1.00
2019-05-22T12:48:32.015Z,1.00
2019-05-22T12:51:02.531Z,1.00
2019-05-22T12:53:34.037Z,1.00
2019-05-22T12:56:07.294Z,1.00
2019-05-22T12:58:39.422Z,1.00
2019-05-22T13:01:09.796Z,1.00
2019-05-22T13:03:40.074Z,1.00
2019-05-22T13:06:11.868Z,1.00
2019-05-22T13:08:42.634Z,1.00
2019-05-22T13:11:14.449Z,1.00
2019-05-22T13:13:45.602Z,1.00
2019-05-22T13:16:17.100Z,1.00
2019-05-22T13:18:47.652Z,1.00
2019-05-22T13:21:20.658Z,1.00
2019-05-22T13:23:53.123Z,1.00
2019-05-22T13:26:25.283Z,1.00
2019-05-22T13:28:56.755Z,1.00
2019-05-22T13:31:27.598Z,1.00
2019-05-22T13:33:58.932Z,1.00
2019-05-22T13:36:30.950Z,1.00
2019-05-22T13:39:04.360Z,1.00
2019-05-22T13:41:34.836Z,1.00
2019-05-22T13:44:07.017Z,1.00
2019-05-22T13:46:37.827Z,1.00
2019-05-22T13:49:08.238Z,1.00
2019-05-22T13:51:41.063Z,1.00
2019-05-22T13:54:13.733Z,1.00
2019-05-22T13:56:45.658Z,1.00
2019-05-22T13:59:16.565Z,1.00
2019-05-22T14:01:47.770Z,1.00
2019-05-22T14:04:19.708Z,1.00
2019-05-22T14:06:50.564Z,1.00
2019-05-22T14:09:21.829Z,1.00
2019-05-22T14:11:54.760Z,1.00
2019-05-22T14:14:25.243Z,1.00
2019-05-22T14:16:55.813Z,1.00
2019-05-22T14:19:26.013Z,1.00
2019-05-22T14:21:56.415Z,1.00
2019-05-22T14:24:26.602Z,1.00
2019-05-22T14:26:56.789Z,1.00
2019-05-22T14:29:27.012Z,1.00
2019-05-22T14:31:57.723Z,1.00
2019-05-22T14:34:28.966Z,1.00
2019-05-22T14:37:00.358Z,1.00
2019-05-22T14:39:31.830Z,1.00
2019-05-22T14:42:02.417Z,1.00
2019-05-22T14:44:33.973Z,1.00
2019-05-22T14:47:13.051Z,1.00
2019-05-22T14:49:36.460Z,1.00
2019-05-22T14:52:07.777Z,1.00
2019-05-22T14:54:38.326Z,1.00
2019-05-22T14:57:09.586Z,1.00
2019-05-22T14:59:40.870Z,1.00
2019-05-22T15:02:11.414Z,1.00
2019-05-22T15:04:42.259Z,1.00
2019-05-22T15:07:13.013Z,1.00
2019-05-22T15:09:44.174Z,1.00
2019-05-22T15:12:15.665Z,1.00
2019-05-22T15:14:46.057Z,1.00
2019-05-22T15:17:31.640Z,1.00
2019-05-22T15:19:49.633Z,1.00
2019-05-22T15:22:20.343Z,1.00
2019-05-22T15:24:51.121Z,1.00
2019-05-22T15:27:22.024Z,1.00
2019-05-22T15:29:52.156Z,1.00
2019-05-22T15:32:22.404Z,1.00
2019-05-22T15:34:52.956Z,1.00
2019-05-22T15:37:26.308Z,1.00
2019-05-22T15:39:59.535Z,1.00
2019-05-22T15:42:39.772Z,1.00
2019-05-22T15:45:13.894Z,1.00
2019-05-22T15:47:54.607Z,1.00
2019-05-22T15:50:23.843Z,1.00
2019-05-22T15:52:57.109Z,1.00
2019-05-22T15:55:31.237Z,1.00
2019-05-22T15:58:03.053Z,1.00
2019-05-22T16:00:35.771Z,1.00
2019-05-22T16:03:13.908Z,1.00
2019-05-22T16:05:45.029Z,1.00
2019-05-22T16:08:15.827Z,1.00
2019-05-22T16:10:48.360Z,1.00
2019-05-22T16:13:22.628Z,1.00
2019-05-22T16:15:55.601Z,1.00
2019-05-22T16:18:29.287Z,1.00
2019-05-22T16:21:02.576Z,1.00
2019-05-22T16:23:35.203Z,1.00
2019-05-22T16:26:10.119Z,1.00
2019-05-22T16:28:42.416Z,1.00
2019-05-22T16:31:13.956Z,1.00
2019-05-22T16:33:46.066Z,1.00
2019-05-22T16:36:18.779Z,1.00
2019-05-22T16:38:50.907Z,1.00
2019-05-22T16:41:24.438Z,1.00
2019-05-22T16:43:56.224Z,1.00
2019-05-22T16:46:27.289Z,1.00
2019-05-22T16:48:58.883Z,1.00
2019-05-22T16:51:31.396Z,1.00
2019-05-22T16:54:08.601Z,1.00
2019-05-22T16:56:41.038Z,1.00
2019-05-22T16:59:12.641Z,1.00
2019-05-22T17:01:58.704Z,1.00
2019-05-22T17:04:17.234Z,1.00
2019-05-22T17:06:47.825Z,1.00
2019-05-22T17:09:19.512Z,1.00
2019-05-22T17:11:52.204Z,1.00
2019-05-22T17:14:24.926Z,1.00
2019-05-22T17:16:55.287Z,1.00
2019-05-22T17:19:27.709Z,1.00
2019-05-22T17:21:58.947Z,1.00
2019-05-22T17:24:29.382Z,1.00
2019-05-22T17:26:59.623Z,1.00
2019-05-22T17:29:32.003Z,1.00
2019-05-22T17:32:03.152Z,1.00
2019-05-22T17:34:35.524Z,1.00
2019-05-22T17:37:14.331Z,1.00
2019-05-22T17:39:48.334Z,1.00
2019-05-22T17:42:21.352Z,1.00
2019-05-22T17:44:53.025Z,1.00
2019-05-22T17:47:26.248Z,1.00
2019-05-22T17:49:57.817Z,1.00
2019-05-22T17:52:29.291Z,1.00
2019-05-22T17:55:00.556Z,1.00
2019-05-22T17:57:33.198Z,1.00
2019-05-22T18:00:06.026Z,1.00
2019-05-22T18:02:37.159Z,1.00
2019-05-22T18:05:09.645Z,1.00
2019-05-22T18:07:40.371Z,1.00
2019-05-22T18:10:12.978Z,1.00
2019-05-22T18:12:43.455Z,1.00
2019-05-22T18:15:15.962Z,1.00
2019-05-22T18:17:46.764Z,1.00
2019-05-22T18:20:18.505Z,1.00
2019-05-22T18:22:48.771Z,1.00
2019-05-22T18:25:19.871Z,1.00
2019-05-22T18:27:52.438Z,1.00
2019-05-22T18:30:24.357Z,1.00
2019-05-22T18:32:54.899Z,1.00
2019-05-22T18:35:26.262Z,1.00
2019-05-22T18:37:56.906Z,1.00
2019-05-22T18:40:27.885Z,1.00
2019-05-22T18:42:58.536Z,1.00
2019-05-22T18:45:30.240Z,1.00
2019-05-22T18:48:00.633Z,1.00
2019-05-22T18:50:31.581Z,1.00
2019-05-22T18:53:02.557Z,1.00
2019-05-22T18:55:32.813Z,1.00
2019-05-22T18:58:03.222Z,1.00
2019-05-22T19:00:33.980Z,1.00
2019-05-22T19:03:05.992Z,1.00
2019-05-22T19:05:37.260Z,1.00
2019-05-22T19:08:07.864Z,1.00
2019-05-22T19:10:38.377Z,1.00
2019-05-22T19:13:08.967Z,1.00
2019-05-22T19:15:39.737Z,1.00
2019-05-22T19:18:10.273Z,1.00
2019-05-22T19:20:41.425Z,1.00
2019-05-22T19:23:11.628Z,1.00
2019-05-22T19:25:42.235Z,1.00
2019-05-22T19:28:12.675Z,1.00
2019-05-22T19:30:42.851Z,1.00
2019-05-22T19:33:15.027Z,1.00
2019-05-22T19:35:45.423Z,1.00
2019-05-22T19:38:16.124Z,1.00
2019-05-22T19:40:51.466Z,1.00
2019-05-22T19:43:21.844Z,1.00
2019-05-22T19:45:52.541Z,1.00
2019-05-22T19:48:22.910Z,1.00
2019-05-22T19:50:54.192Z,1.00
2019-05-22T19:53:25.060Z,1.00
2019-05-22T19:55:56.195Z,1.00
2019-05-22T19:58:26.861Z,1.00
2019-05-22T20:00:59.732Z,1.00
2019-05-22T20:03:30.598Z,1.00
2019-05-22T20:06:01.231Z,1.00
2019-05-22T20:08:31.987Z,1.00
2019-05-22T20:11:02.711Z,1.00
2019-05-22T20:13:33.624Z,1.00
2019-05-22T20:16:04.704Z,1.00
2019-05-22T20:18:35.344Z,1.00
2019-05-22T20:21:06.689Z,1.00
2019-05-22T20:23:37.231Z,1.00
2019-05-22T20:26:08.609Z,1.00
2019-05-22T20:28:39.511Z,1.00
2019-05-22T20:31:10.104Z,1.00
2019-05-22T20:33:41.232Z,1.00
2019-05-22T20:36:12.045Z,1.00
2019-05-22T20:38:42.216Z,1.00
2019-05-22T20:41:13.993Z,1.00
2019-05-22T20:43:46.041Z,1.00
2019-05-22T20:46:18.711Z,1.00
2019-05-22T20:48:49.513Z,1.00
2019-05-22T20:51:21.953Z,1.00
2019-05-22T20:53:54.780Z,1.00
2019-05-22T20:56:27.574Z,1.00
2019-05-22T20:59:01.196Z,1.00
2019-05-22T21:01:33.796Z,1.00
2019-05-22T21:04:06.553Z,1.00
2019-05-22T21:06:44.492Z,1.00
2019-05-22T21:09:16.512Z,1.00
2019-05-22T21:11:48.573Z,1.00
2019-05-22T21:14:20.651Z,1.00
2019-05-22T21:16:52.072Z,1.00
2019-05-22T21:19:24.353Z,1.00
2019-05-22T21:21:56.471Z,1.00
2019-05-22T21:24:27.740Z,1.00
2019-05-22T21:26:57.964Z,1.00
2019-05-22T21:29:28.763Z,1.00
2019-05-22T21:31:59.553Z,1.00
2019-05-22T21:34:30.675Z,1.00
2019-05-22T21:37:01.512Z,1.00
2019-05-22T21:39:32.368Z,1.00
2019-05-22T21:42:02.614Z,1.00
2019-05-22T21:44:34.772Z,1.00
2019-05-22T21:47:07.667Z,1.00
2019-05-22T21:49:38.942Z,1.00
2019-05-22T21:52:11.466Z,1.00
2019-05-22T21:54:42.357Z,1.00
2019-05-22T21:57:13.268Z,1.00
2019-05-22T21:59:43.660Z,1.00
2019-05-22T22:02:20.341Z,1.00
2019-05-22T22:04:51.423Z,1.00
2019-05-22T22:07:22.042Z,1.00
2019-05-22T22:09:53.537Z,1.00
2019-05-22T22:12:24.802Z,1.00
2019-05-22T22:14:55.794Z,1.00
2019-05-22T22:17:28.187Z,1.00
2019-05-22T22:19:58.654Z,1.00
2019-05-22T22:22:29.462Z,1.00
2019-05-22T22:24:59.684Z,1.00
2019-05-22T22:27:31.124Z,1.00
2019-05-22T22:30:02.952Z,1.00
2019-05-22T22:32:35.283Z,1.00
2019-05-22T22:35:08.299Z,1.00
2019-05-22T22:37:38.768Z,1.00
2019-05-22T22:40:10.856Z,1.00
2019-05-22T22:42:44.128Z,1.00
2019-05-22T22:45:20.881Z,1.00
2019-05-22T22:47:52.154Z,1.00
2019-05-22T22:50:25.579Z,1.00
2019-05-22T22:52:56.077Z,1.00
2019-05-22T22:55:29.400Z,1.00
2019-05-22T22:58:15.984Z,1.00
2019-05-22T23:00:37.939Z,1.00
2019-05-22T23:03:11.659Z,1.00
2019-05-22T23:05:43.690Z,1.00
2019-05-22T23:08:17.666Z,1.00
2019-05-22T23:10:50.272Z,1.00
2019-05-22T23:13:23.449Z,1.00
2019-05-22T23:15:54.753Z,1.00
2019-05-22T23:18:54.784Z,1.00
2019-05-22T23:21:24.907Z,3.00
2019-05-22T23:23:53.483Z,1.00
2019-05-22T23:26:23.662Z,1.00
2019-05-22T23:28:54.064Z,1.10
2019-05-22T23:31:24.987Z,6.40
2019-05-22T23:33:55.273Z,4.70
2019-05-22T23:36:26.326Z,1.10
2019-05-22T23:38:59.598Z,1.00
2019-05-22T23:41:32.593Z,3.10
2019-05-22T23:44:03.172Z,4.10
2019-05-22T23:46:34.253Z,6.50
2019-05-22T23:49:04.687Z,5.40
2019-05-22T23:51:34.755Z,10.80
2019-05-22T23:54:09.553Z,10.80
2019-05-22T23:56:41.895Z,4.80
2019-05-22T23:59:15.559Z,4.10
